Time;durP1;ratioP1;P1;durP2;ratioP2;P2;SDS_P1;SDS_P2;PMS_P1;PMS_P2;Temp;Humidity;BMP_temperature;BMP_pressure;BME280_temperature;BME280_humidity;BME280_pressure;Samples;Min_cycle;Max_cycle;Signal;HPM_P1;HPM_P2
2021/10/24 00:01:11;;;;;;;11.18;3.83;;;6.60;70.70;;;;;;5092893;28;20078;-80
2021/10/24 00:03:36;;;;;;;8.00;4.25;;;6.50;70.80;;;;;;5093600;28;20024;-80
2021/10/24 00:06:02;;;;;;;9.70;4.60;;;6.50;70.90;;;;;;5075089;28;20028;-80
2021/10/24 00:08:29;;;;;;;7.43;3.97;;;6.50;71.10;;;;;;5093014;28;20056;-80
2021/10/24 00:10:56;;;;;;;7.43;4.40;;;6.50;71.20;;;;;;5093772;28;20032;-81
2021/10/24 00:13:22;;;;;;;11.98;4.50;;;6.40;71.40;;;;;;5093396;28;20039;-81
2021/10/24 00:15:47;;;;;;;12.02;4.57;;;6.40;71.40;;;;;;5076150;28;20024;-80
2021/10/24 00:18:14;;;;;;;11.30;4.85;;;6.40;71.60;;;;;;5095031;28;20024;-81
2021/10/24 00:20:40;;;;;;;8.40;4.50;;;6.30;71.90;;;;;;5117775;28;20009;-80
2021/10/24 00:23:05;;;;;;;13.57;4.82;;;6.30;71.90;;;;;;5092128;28;20472;-80
2021/10/24 00:25:31;;;;;;;6.10;4.13;;;6.40;72.00;;;;;;5094650;28;20024;-81
2021/10/24 00:27:58;;;;;;;9.10;4.53;;;6.30;72.30;;;;;;5093394;28;20449;-81
2021/10/24 00:30:25;;;;;;;9.52;4.35;;;6.30;72.10;;;;;;5074680;28;20070;-81
2021/10/24 00:32:50;;;;;;;10.10;4.55;;;6.30;72.00;;;;;;5075047;28;20428;-81
2021/10/24 00:35:17;;;;;;;6.88;3.63;;;6.30;72.00;;;;;;5074606;28;20047;-81
2021/10/24 00:37:43;;;;;;;11.27;5.22;;;6.30;72.10;;;;;;5072441;28;20044;-80
2021/10/24 00:40:12;;;;;;;8.32;4.95;;;6.30;72.40;;;;;;5075094;28;20032;-80
2021/10/24 00:42:51;;;;;;;10.43;4.55;;;6.30;72.40;;;;;;5074755;28;20028;-80
2021/10/24 00:45:17;;;;;;;10.25;4.95;;;6.30;72.50;;;;;;5092712;28;20051;-80
2021/10/24 00:47:44;;;;;;;9.98;4.53;;;6.20;72.40;;;;;;5093096;28;20020;-81
2021/10/24 00:50:10;;;;;;;10.75;4.65;;;6.10;72.40;;;;;;5108612;28;20024;-81
2021/10/24 00:52:36;;;;;;;9.15;4.68;;;6.10;72.40;;;;;;5074544;28;20115;-81
2021/10/24 00:55:04;;;;;;;9.02;4.47;;;5.90;72.60;;;;;;5092830;28;20029;-81
2021/10/24 00:57:31;;;;;;;9.23;4.95;;;5.90;73.00;;;;;;5092709;28;20032;-81
2021/10/24 00:59:58;;;;;;;7.72;4.53;;;5.80;74.60;;;;;;5093689;28;20024;-81
2021/10/24 01:02:29;;;;;;;10.63;5.07;;;5.80;74.20;;;;;;5094143;28;20028;-81
2021/10/24 01:04:55;;;;;;;12.25;5.78;;;5.80;74.10;;;;;;5092693;28;20027;-81
2021/10/24 01:07:21;;;;;;;12.52;5.20;;;5.70;74.10;;;;;;5074642;28;20032;-81
2021/10/24 01:09:46;;;;;;;10.98;5.30;;;5.70;74.50;;;;;;5107216;28;20024;-80
2021/10/24 01:12:14;;;;;;;13.57;4.95;;;5.60;74.50;;;;;;5093257;28;20079;-79
2021/10/24 01:14:40;;;;;;;10.38;5.03;;;5.60;74.60;;;;;;5096992;28;20012;-80
2021/10/24 01:17:05;;;;;;;11.23;4.93;;;5.60;74.70;;;;;;5078661;28;20046;-81
2021/10/24 01:19:31;;;;;;;11.02;5.50;;;5.60;74.50;;;;;;5097828;28;20008;-79
2021/10/24 01:21:57;;;;;;;11.98;5.03;;;5.70;75.00;;;;;;5121966;28;20043;-81
2021/10/24 01:24:22;;;;;;;8.65;4.72;;;5.70;75.30;;;;;;5104596;28;20032;-80
2021/10/24 01:26:49;;;;;;;10.60;5.13;;;5.70;75.20;;;;;;5087758;28;20032;-81
2021/10/24 01:29:18;;;;;;;10.15;5.03;;;5.70;75.30;;;;;;5121996;28;20008;-83
2021/10/24 01:31:44;;;;;;;9.05;5.90;;;5.90;75.30;;;;;;5104207;28;20088;-79
2021/10/24 01:34:12;;;;;;;10.10;5.13;;;6.00;75.00;;;;;;5121446;28;20016;-80
2021/10/24 01:36:38;;;;;;;12.52;5.88;;;6.00;75.00;;;;;;5079502;28;20036;-81
2021/10/24 01:39:04;;;;;;;13.27;5.13;;;6.00;74.90;;;;;;5122637;28;20043;-82
2021/10/24 01:41:30;;;;;;;10.05;5.20;;;6.00;74.80;;;;;;5108262;28;20031;-82
2021/10/24 01:43:56;;;;;;;12.10;5.45;;;6.10;74.50;;;;;;5089775;28;20032;-81
2021/10/24 01:46:26;;;;;;;11.65;5.10;;;6.10;74.70;;;;;;5109474;28;20107;-82
2021/10/24 01:48:53;;;;;;;12.80;5.60;;;6.00;74.80;;;;;;5090225;28;20024;-81
2021/10/24 01:51:23;;;;;;;13.52;5.45;;;6.10;74.80;;;;;;5105348;28;20024;-82
2021/10/24 01:53:49;;;;;;;11.95;5.40;;;6.10;74.60;;;;;;5064133;28;20119;-82
2021/10/24 01:56:16;;;;;;;10.93;5.85;;;6.10;74.60;;;;;;5097502;28;20027;-82
2021/10/24 01:58:43;;;;;;;9.63;5.43;;;6.10;74.60;;;;;;5096120;28;20036;-82
2021/10/24 02:01:10;;;;;;;8.05;5.15;;;6.10;74.50;;;;;;5061467;28;20388;-82
2021/10/24 02:03:37;;;;;;;11.98;5.78;;;6.10;74.50;;;;;;5096000;28;20036;-82
2021/10/24 02:06:05;;;;;;;10.60;4.95;;;6.00;74.60;;;;;;5097440;28;20024;-82
2021/10/24 02:08:33;;;;;;;9.30;4.70;;;6.00;74.40;;;;;;5101520;28;20036;-81
2021/10/24 02:11:00;;;;;;;9.55;5.10;;;6.00;74.20;;;;;;5113238;28;20028;-80
2021/10/24 02:13:28;;;;;;;6.72;4.80;;;6.00;74.10;;;;;;5069396;28;20028;-81
2021/10/24 02:16:00;;;;;;;7.68;4.85;;;5.90;74.10;;;;;;5078014;28;20020;-81
2021/10/24 02:18:26;;;;;;;8.30;4.88;;;5.90;74.20;;;;;;5077712;28;20024;-81
2021/10/24 02:20:54;;;;;;;10.98;4.93;;;5.90;74.80;;;;;;5077651;28;20099;-83
2021/10/24 02:23:19;;;;;;;10.57;5.95;;;6.00;74.80;;;;;;5077035;28;20380;-83
2021/10/24 02:25:51;;;;;;;11.65;5.50;;;6.00;75.10;;;;;;5077679;28;20024;-83
2021/10/24 02:28:21;;;;;;;11.43;4.82;;;6.00;74.80;;;;;;5095654;28;20494;-83
2021/10/24 02:30:46;;;;;;;11.13;5.38;;;6.00;74.50;;;;;;5078306;28;20030;-83
2021/10/24 02:33:12;;;;;;;8.05;5.05;;;6.10;74.40;;;;;;5095231;28;20035;-82
2021/10/24 02:35:39;;;;;;;11.38;6.15;;;6.10;74.50;;;;;;5095475;28;20016;-83
2021/10/24 02:38:05;;;;;;;12.48;6.07;;;6.10;74.70;;;;;;5095165;28;20058;-83
2021/10/24 02:40:31;;;;;;;10.43;5.32;;;6.10;74.80;;;;;;5095166;28;20039;-83
2021/10/24 02:42:58;;;;;;;11.00;6.03;;;6.10;74.70;;;;;;5095528;28;20032;-83
2021/10/24 02:45:25;;;;;;;11.98;5.72;;;6.20;74.50;;;;;;5095076;28;20043;-83
2021/10/24 02:47:50;;;;;;;11.63;5.30;;;6.20;74.20;;;;;;5076987;28;20016;-82
2021/10/24 02:50:19;;;;;;;7.88;4.78;;;6.20;73.90;;;;;;5095310;28;20111;-82
2021/10/24 02:52:45;;;;;;;13.48;5.03;;;6.10;73.70;;;;;;5060229;28;20040;-83
2021/10/24 02:55:13;;;;;;;9.50;5.10;;;6.00;73.40;;;;;;5094666;28;20369;-83
2021/10/24 02:57:40;;;;;;;12.25;4.93;;;6.00;73.50;;;;;;5060296;28;20476;-82
2021/10/24 03:00:09;;;;;;;9.25;5.50;;;5.90;74.10;;;;;;5076957;28;20069;-83
2021/10/24 03:02:38;;;;;;;7.80;5.28;;;5.80;74.20;;;;;;5076401;28;20026;-82
2021/10/24 03:05:11;;;;;;;11.60;5.80;;;5.70;74.60;;;;;;5077283;28;20028;-82
2021/10/24 03:07:38;;;;;;;9.88;4.63;;;5.50;75.00;;;;;;5094499;28;20644;-82
2021/10/24 03:10:07;;;;;;;8.90;4.35;;;5.20;76.30;;;;;;5076539;28;20032;-82
2021/10/24 03:12:35;;;;;;;9.82;5.13;;;5.20;76.60;;;;;;5076803;28;20088;-83
2021/10/24 03:15:02;;;;;;;6.78;4.22;;;5.20;77.00;;;;;;5076311;28;20020;-82
2021/10/24 03:17:27;;;;;;;10.90;5.10;;;5.20;77.20;;;;;;5059731;28;20418;-82
2021/10/24 03:19:54;;;;;;;12.15;5.28;;;5.20;77.20;;;;;;5094313;28;20110;-82
2021/10/24 03:22:20;;;;;;;15.10;5.70;;;5.00;76.50;;;;;;5095091;28;20110;-82
2021/10/24 03:24:46;;;;;;;9.32;5.25;;;4.90;76.50;;;;;;5096311;28;20067;-82
2021/10/24 03:27:11;;;;;;;10.38;5.35;;;4.90;76.60;;;;;;5101653;28;20083;-80
2021/10/24 03:29:37;;;;;;;9.40;5.05;;;4.80;76.80;;;;;;5080138;28;20016;-78
2021/10/24 03:32:05;;;;;;;12.98;5.60;;;4.70;77.50;;;;;;5076168;28;20060;-78
2021/10/24 03:34:30;;;;;;;11.68;6.35;;;4.70;77.20;;;;;;5093119;28;20024;-79
2021/10/24 03:36:56;;;;;;;10.13;5.90;;;4.50;75.90;;;;;;5093686;28;20050;-79
2021/10/24 03:39:23;;;;;;;11.82;6.25;;;4.40;76.10;;;;;;5094152;28;20103;-78
2021/10/24 03:41:48;;;;;;;14.15;6.32;;;4.40;76.80;;;;;;5075662;28;20067;-78
2021/10/24 03:44:15;;;;;;;11.98;6.43;;;4.30;78.10;;;;;;5093657;28;20515;-78
2021/10/24 03:46:41;;;;;;;14.13;6.88;;;4.30;78.80;;;;;;5075675;28;20055;-78
2021/10/24 03:49:09;;;;;;;12.93;6.80;;;4.30;79.10;;;;;;5075516;28;20060;-78
2021/10/24 03:51:35;;;;;;;12.10;5.90;;;4.20;78.50;;;;;;5059703;28;20051;-82
2021/10/24 03:54:01;;;;;;;17.50;6.97;;;4.40;78.50;;;;;;5075299;28;20039;-82
2021/10/24 03:56:35;;;;;;;11.30;5.85;;;4.40;78.00;;;;;;5075425;28;20030;-82
2021/10/24 03:59:01;;;;;;;10.77;6.38;;;4.40;77.60;;;;;;5093611;28;20460;-82
2021/10/24 04:01:29;;;;;;;12.00;6.30;;;4.30;77.10;;;;;;5075302;28;20166;-82
2021/10/24 04:03:54;;;;;;;10.40;5.78;;;4.20;77.40;;;;;;5093472;28;20012;-82
2021/10/24 04:06:20;;;;;;;12.55;6.45;;;4.10;77.60;;;;;;5075369;28;20024;-82
2021/10/24 04:08:46;;;;;;;12.00;6.18;;;4.10;77.60;;;;;;5093430;28;20027;-83
2021/10/24 04:11:16;;;;;;;10.10;5.90;;;4.00;77.40;;;;;;5093156;28;20020;-81
2021/10/24 04:13:42;;;;;;;11.40;6.40;;;3.60;76.80;;;;;;5093289;28;20024;-82
2021/10/24 04:16:10;;;;;;;11.75;6.72;;;3.60;77.50;;;;;;5093387;28;20031;-81
2021/10/24 04:18:37;;;;;;;10.50;5.78;;;3.50;77.90;;;;;;5075166;28;20104;-82
2021/10/24 04:21:04;;;;;;;10.32;6.82;;;3.30;78.60;;;;;;5093385;28;20017;-81
2021/10/24 04:23:30;;;;;;;13.10;5.95;;;3.10;79.00;;;;;;5093327;28;20046;-82
2021/10/24 04:25:56;;;;;;;11.50;7.28;;;3.20;79.20;;;;;;5057468;28;20560;-82
2021/10/24 04:28:23;;;;;;;12.60;6.53;;;3.20;79.00;;;;;;5093199;28;20027;-82
2021/10/24 04:30:50;;;;;;;10.73;6.22;;;3.20;79.00;;;;;;5093468;28;20129;-82
2021/10/24 04:33:18;;;;;;;13.50;6.95;;;3.00;79.80;;;;;;5093141;28;20033;-82
2021/10/24 04:35:44;;;;;;;10.25;6.20;;;2.90;79.40;;;;;;5075043;28;20400;-82
2021/10/24 04:38:12;;;;;;;14.38;6.85;;;2.80;79.10;;;;;;5093135;28;20051;-82
2021/10/24 04:40:41;;;;;;;14.50;6.75;;;2.60;79.90;;;;;;5093173;28;20066;-81
2021/10/24 04:43:12;;;;;;;12.75;6.68;;;2.60;80.30;;;;;;5092983;28;20122;-80
2021/10/24 04:45:42;;;;;;;12.02;6.63;;;2.50;81.10;;;;;;5094062;28;20044;-80
2021/10/24 04:48:09;;;;;;;12.38;6.15;;;2.60;81.00;;;;;;5099275;28;20032;-80
2021/10/24 04:50:36;;;;;;;11.50;5.78;;;2.60;80.90;;;;;;5081645;28;20028;-80
2021/10/24 04:53:06;;;;;;;8.70;5.50;;;2.70;80.60;;;;;;5081841;28;20039;-80
2021/10/24 04:55:34;;;;;;;9.43;5.80;;;2.80;80.00;;;;;;5084725;28;20027;-80
2021/10/24 04:58:00;;;;;;;9.05;4.85;;;2.90;79.60;;;;;;5087097;28;20162;-81
2021/10/24 05:00:26;;;;;;;13.40;6.25;;;2.90;79.10;;;;;;5103933;28;20039;-80
2021/10/24 05:02:52;;;;;;;15.63;6.80;;;3.00;78.70;;;;;;5083657;28;20434;-80
2021/10/24 05:05:17;;;;;;;10.82;6.03;;;2.90;78.80;;;;;;5086803;28;20036;-81
2021/10/24 05:07:43;;;;;;;12.50;5.97;;;2.90;78.90;;;;;;5101445;28;20107;-82
2021/10/24 05:10:09;;;;;;;13.38;6.00;;;3.00;78.90;;;;;;5105592;28;20085;-80
2021/10/24 05:12:39;;;;;;;8.07;5.38;;;3.00;78.70;;;;;;5103555;28;20039;-80
2021/10/24 05:15:05;;;;;;;10.90;5.72;;;3.10;78.70;;;;;;5065367;28;20517;-79
2021/10/24 05:17:31;;;;;;;9.50;5.93;;;3.00;78.60;;;;;;5082050;28;20485;-81
2021/10/24 05:19:57;;;;;;;12.73;7.45;;;3.10;78.80;;;;;;5082823;28;20113;-82
2021/10/24 05:22:23;;;;;;;9.57;5.45;;;3.10;78.50;;;;;;5082059;28;20024;-80
2021/10/24 05:24:49;;;;;;;9.15;5.40;;;3.10;78.40;;;;;;5081726;28;20020;-81
2021/10/24 05:27:17;;;;;;;10.23;5.90;;;3.20;78.30;;;;;;5100193;28;20035;-81
2021/10/24 05:29:44;;;;;;;11.57;6.10;;;3.20;78.00;;;;;;5100779;28;20019;-79
2021/10/24 05:32:10;;;;;;;12.48;6.40;;;3.20;77.90;;;;;;5100651;28;20097;-82
2021/10/24 05:34:42;;;;;;;9.68;5.45;;;3.20;77.80;;;;;;5082887;28;20073;-82
2021/10/24 05:37:07;;;;;;;10.90;6.25;;;3.20;77.70;;;;;;5107132;28;20111;-82
2021/10/24 05:39:33;;;;;;;10.68;5.68;;;3.20;77.80;;;;;;5084507;28;20033;-82
2021/10/24 05:42:00;;;;;;;10.65;5.57;;;3.20;77.80;;;;;;5101789;28;20024;-80
2021/10/24 05:44:27;;;;;;;9.27;5.45;;;3.20;78.00;;;;;;5099451;28;20012;-81
2021/10/24 05:46:53;;;;;;;10.35;6.03;;;3.10;78.00;;;;;;5096002;28;20036;-82
2021/10/24 05:49:20;;;;;;;10.50;5.57;;;3.20;78.10;;;;;;5081662;28;20123;-81
2021/10/24 05:51:50;;;;;;;10.55;5.75;;;3.20;78.20;;;;;;5099247;28;20109;-81
2021/10/24 05:54:18;;;;;;;9.98;5.80;;;3.10;78.20;;;;;;5099744;28;20028;-81
2021/10/24 05:56:46;;;;;;;10.32;5.82;;;3.10;78.20;;;;;;5099153;28;20092;-80
2021/10/24 05:59:12;;;;;;;9.18;5.43;;;3.10;78.40;;;;;;5076645;28;20083;-81
2021/10/24 06:01:38;;;;;;;7.38;5.35;;;3.10;78.30;;;;;;5096530;28;20499;-81
2021/10/24 06:04:05;;;;;;;9.23;5.18;;;3.00;78.20;;;;;;5078450;28;20036;-82
2021/10/24 06:06:30;;;;;;;12.02;5.70;;;3.00;78.20;;;;;;5095795;28;20021;-82
2021/10/24 06:08:59;;;;;;;15.10;6.63;;;3.00;78.20;;;;;;5096070;28;20021;-83
2021/10/24 06:11:33;;;;;;;10.13;6.32;;;3.10;78.30;;;;;;5077838;28;20438;-81
2021/10/24 06:14:00;;;;;;;;;;;3.10;78.10;;;;;;5079954;28;20036;-80
2021/10/24 06:16:25;;;;;;;;;;;3.20;77.60;;;;;;5077992;28;19904;-82
2021/10/24 06:18:52;;;;;;;;;;;3.10;77.50;;;;;;5096065;28;19911;-82
2021/10/24 06:21:18;;;;;;;8.85;5.28;;;3.10;77.60;;;;;;5077641;28;19908;-82
2021/10/24 06:23:46;;;;;;;10.25;5.50;;;3.00;77.60;;;;;;5095712;28;20081;-82
2021/10/24 06:26:12;;;;;;;13.07;6.32;;;3.10;78.50;;;;;;5095459;28;20060;-81
2021/10/24 06:28:37;;;;;;;8.18;6.20;;;3.10;77.70;;;;;;5095391;28;20059;-81
2021/10/24 06:31:04;;;;;;;11.38;6.13;;;3.10;77.90;;;;;;5077657;28;20524;-81
2021/10/24 06:33:34;;;;;;;9.93;6.63;;;3.20;77.80;;;;;;5077526;28;20380;-81
2021/10/24 06:36:00;;;;;;;13.13;7.97;;;3.20;77.60;;;;;;5061774;28;20514;-81
2021/10/24 06:38:28;;;;;;;12.45;7.05;;;3.30;77.30;;;;;;5077485;28;20052;-81
2021/10/24 06:40:54;;;;;;;11.38;6.82;;;3.30;77.10;;;;;;5095261;28;20067;-81
2021/10/24 06:43:20;;;;;;;13.52;7.32;;;3.40;78.00;;;;;;5095200;28;20016;-81
2021/10/24 06:45:47;;;;;;;13.13;6.88;;;3.50;78.60;;;;;;5076826;28;20039;-81
2021/10/24 06:48:13;;;;;;;11.52;6.75;;;3.70;78.20;;;;;;5076624;28;20080;-82
2021/10/24 06:50:39;;;;;;;11.07;7.15;;;3.80;76.80;;;;;;5076782;28;20024;-81
2021/10/24 06:53:05;;;;;;;11.73;7.00;;;4.00;75.80;;;;;;5076920;28;20040;-81
2021/10/24 06:55:31;;;;;;;13.50;6.72;;;4.10;75.20;;;;;;5076705;28;20032;-81
2021/10/24 06:57:57;;;;;;;11.98;6.00;;;4.10;74.60;;;;;;5077045;28;20032;-80
2021/10/24 07:00:27;;;;;;;9.32;5.70;;;4.10;74.30;;;;;;5093169;28;20025;-81
2021/10/24 07:02:56;;;;;;;11.65;7.30;;;4.10;75.00;;;;;;5060334;28;20500;-81
2021/10/24 07:05:24;;;;;;;9.35;6.68;;;4.10;74.20;;;;;;5076419;28;20031;-80
2021/10/24 07:07:52;;;;;;;15.57;7.50;;;4.20;74.40;;;;;;5076746;28;20074;-80
2021/10/24 07:10:18;;;;;;;13.18;6.97;;;4.20;74.40;;;;;;5076582;28;20032;-80
2021/10/24 07:12:50;;;;;;;12.50;8.30;;;4.30;74.40;;;;;;5076208;28;20481;-79
2021/10/24 07:15:20;;;;;;;15.50;8.07;;;4.30;74.60;;;;;;5094333;28;20480;-81
2021/10/24 07:17:48;;;;;;;13.85;8.73;;;4.30;75.20;;;;;;5094700;28;20421;-81
2021/10/24 07:20:14;;;;;;;14.73;7.50;;;4.20;76.50;;;;;;5076147;28;20117;-82
2021/10/24 07:22:40;;;;;;;10.82;7.28;;;4.30;75.90;;;;;;5093974;28;20024;-81
2021/10/24 07:25:07;;;;;;;19.15;7.43;;;4.30;76.20;;;;;;5076456;28;20073;-80
2021/10/24 07:27:33;;;;;;;9.05;6.10;;;4.40;76.00;;;;;;5094345;28;20055;-79
2021/10/24 07:30:02;;;;;;;9.13;5.80;;;4.50;76.20;;;;;;5094397;28;20024;-79
2021/10/24 07:32:29;;;;;;;9.77;5.63;;;4.60;76.20;;;;;;5093720;28;20130;-79
2021/10/24 07:34:56;;;;;;;10.98;6.57;;;4.80;75.80;;;;;;5059520;28;20091;-80
2021/10/24 07:37:24;;;;;;;12.80;7.43;;;5.00;75.80;;;;;;5093862;28;20484;-80
2021/10/24 07:39:51;;;;;;;11.07;7.72;;;5.00;75.70;;;;;;5076207;28;20032;-80
2021/10/24 07:42:20;;;;;;;10.80;6.80;;;5.10;75.90;;;;;;5075842;28;20040;-80
2021/10/24 07:44:50;;;;;;;10.07;6.63;;;5.30;75.50;;;;;;5049637;28;20097;-82
2021/10/24 07:47:16;;;;;;;16.40;8.90;;;5.50;75.00;;;;;;5076637;28;20611;-81
2021/10/24 07:49:43;;;;;;;12.90;7.90;;;5.60;74.50;;;;;;5093840;28;20017;-81
2021/10/24 07:52:09;;;;;;;14.30;7.88;;;5.80;74.20;;;;;;5075703;28;20127;-80
2021/10/24 07:54:35;;;;;;;16.73;7.93;;;6.00;73.90;;;;;;5092805;28;20583;-80
2021/10/24 07:57:01;;;;;;;13.90;8.18;;;6.20;74.10;;;;;;5093786;28;20085;-81
2021/10/24 07:59:39;;;;;;;14.68;9.07;;;6.50;73.70;;;;;;5093997;28;20054;-80
2021/10/24 08:02:09;;;;;;;14.95;9.05;;;6.60;73.40;;;;;;5075852;28;20020;-82
2021/10/24 08:04:35;;;;;;;14.73;8.07;;;6.70;73.30;;;;;;5075762;28;20106;-80
2021/10/24 08:07:06;;;;;;;14.45;7.70;;;6.90;72.90;;;;;;5093642;28;20102;-81
2021/10/24 08:09:31;;;;;;;11.10;7.80;;;7.00;72.10;;;;;;5075217;28;20035;-79
2021/10/24 08:12:00;;;;;;;16.35;8.82;;;7.20;71.40;;;;;;5075404;28;20389;-80
2021/10/24 08:14:26;;;;;;;14.27;8.07;;;7.30;70.90;;;;;;5093217;28;20036;-81
2021/10/24 08:16:54;;;;;;;24.88;8.63;;;7.50;70.70;;;;;;5075742;28;20024;-83
2021/10/24 08:19:20;;;;;;;12.23;8.10;;;7.60;70.10;;;;;;5077578;28;20110;-80
2021/10/24 08:21:49;;;;;;;13.82;7.70;;;7.70;70.40;;;;;;5058110;28;20568;-78
2021/10/24 08:24:18;;;;;;;14.65;7.22;;;7.80;70.20;;;;;;5093317;28;20107;-77
2021/10/24 08:26:49;;;;;;;10.77;6.55;;;7.90;70.50;;;;;;5058573;28;20024;-80
2021/10/24 08:29:14;;;;;;;11.52;7.03;;;8.10;70.10;;;;;;5075429;28;20453;-83
2021/10/24 08:31:52;;;;;;;23.48;6.78;;;8.30;70.00;;;;;;5075659;28;20064;-83
2021/10/24 08:34:23;;;;;;;12.75;7.10;;;8.70;79.50;;;;;;5093959;28;20480;-79
2021/10/24 08:36:50;;;;;;;10.82;6.15;;;9.00;74.00;;;;;;5075473;28;20024;-77
2021/10/24 08:39:16;;;;;;;10.10;5.85;;;9.20;69.80;;;;;;5093310;28;20110;-78
2021/10/24 08:41:47;;;;;;;11.35;6.78;;;9.40;68.40;;;;;;5092575;28;20024;-80
2021/10/24 08:44:17;;;;;;;10.40;6.63;;;9.70;66.20;;;;;;5093107;28;20103;-79
2021/10/24 08:46:45;;;;;;;12.13;6.97;;;9.80;64.80;;;;;;5074902;28;20047;-78
2021/10/24 08:49:12;;;;;;;10.65;5.95;;;10.00;62.90;;;;;;5092802;28;20052;-78
2021/10/24 08:51:38;;;;;;;8.85;5.47;;;10.10;64.00;;;;;;5075474;28;20053;-80
2021/10/24 08:54:04;;;;;;;11.85;6.03;;;10.20;61.90;;;;;;5092915;28;20107;-79
2021/10/24 08:56:32;;;;;;;8.35;5.82;;;9.90;62.00;;;;;;5074971;28;20055;-78
2021/10/24 08:58:59;;;;;;;10.48;6.57;;;9.80;63.70;;;;;;5093062;28;20031;-78
2021/10/24 09:01:24;;;;;;;10.57;6.00;;;10.00;63.30;;;;;;5074897;28;20031;-78
2021/10/24 09:04:08;;;;;;;8.02;4.97;;;10.20;64.10;;;;;;5093161;28;20020;-78
2021/10/24 09:06:48;;;;;;;7.55;4.93;;;10.50;64.60;;;;;;5093079;28;20154;-77
2021/10/24 09:09:18;;;;;;;7.72;4.50;;;11.00;63.60;;;;;;5092870;28;20040;-78
2021/10/24 09:11:52;;;;;;;8.40;5.57;;;11.40;62.10;;;;;;5078006;28;20043;-78
2021/10/24 09:14:48;;;;;;;9.73;5.30;;;11.70;58.50;;;;;;5117953;28;20012;-78
2021/10/24 09:17:36;;;;;;;7.72;5.47;;;12.00;59.00;;;;;;5108832;28;20027;-79
2021/10/24 09:20:06;;;;;;;6.88;4.47;;;12.30;57.20;;;;;;5094351;28;20097;-79
2021/10/24 09:22:37;;;;;;;13.63;5.13;;;12.70;56.20;;;;;;5043010;28;20068;-78
2021/10/24 09:25:19;;;;;;;8.85;4.97;;;12.90;55.00;;;;;;5075576;28;20032;-80
2021/10/24 09:27:55;;;;;;;6.88;4.95;;;13.20;53.50;;;;;;5075055;28;20028;-81
2021/10/24 09:30:33;;;;;;;7.57;5.05;;;13.50;52.50;;;;;;5092762;28;20020;-80
2021/10/24 09:33:25;;;;;;;9.13;5.30;;;13.80;52.20;;;;;;5093788;28;20031;-84
2021/10/24 09:35:51;;;;;;;8.20;5.20;;;13.80;51.00;;;;;;5077265;28;20027;-85
2021/10/24 09:38:23;;;;;;;11.15;5.25;;;13.80;50.30;;;;;;5078512;28;20472;-84
2021/10/24 09:40:54;;;;;;;9.45;5.50;;;13.80;50.20;;;;;;5071042;28;20024;-83
2021/10/24 09:43:28;;;;;;;7.30;5.15;;;13.80;49.40;;;;;;5078453;28;20098;-85
2021/10/24 09:45:56;;;;;;;9.18;5.50;;;13.90;49.90;;;;;;5096619;28;20020;-84
2021/10/24 09:48:28;;;;;;;8.05;4.82;;;13.70;50.70;;;;;;5096479;28;20032;-85
2021/10/24 09:50:56;;;;;;;7.43;5.05;;;13.90;50.90;;;;;;5077940;28;20055;-86
2021/10/24 09:53:25;;;;;;;11.35;5.72;;;13.90;49.40;;;;;;5096036;28;20122;-83
2021/10/24 09:56:00;;;;;;;7.30;4.80;;;13.90;49.20;;;;;;5096129;28;20039;-84
2021/10/24 09:58:26;;;;;;;6.78;4.90;;;14.10;49.30;;;;;;5096401;28;20024;-84
2021/10/24 10:00:53;;;;;;;7.25;4.40;;;14.10;49.50;;;;;;5078028;28;20028;-85
2021/10/24 10:03:21;;;;;;;5.97;4.32;;;14.20;49.10;;;;;;5096081;28;20016;-86
2021/10/24 10:05:48;;;;;;;7.15;4.90;;;14.20;48.90;;;;;;5088116;28;20032;-84
2021/10/24 10:08:18;;;;;;;8.20;5.28;;;14.40;48.80;;;;;;5061192;28;20031;-85
2021/10/24 10:11:22;;;;;;;8.63;4.97;;;14.60;48.40;;;;;;5096204;28;20071;-86
2021/10/24 10:14:01;;;;;;;6.75;4.60;;;14.70;48.90;;;;;;5053428;28;20045;-86
2021/10/24 10:16:34;;;;;;;7.05;4.70;;;14.80;47.60;;;;;;5054829;28;20037;-85
2021/10/24 10:19:03;;;;;;;6.35;4.43;;;14.90;47.40;;;;;;5054576;28;20029;-85
2021/10/24 10:21:32;;;;;;;8.23;4.78;;;15.20;47.10;;;;;;5053930;28;20401;-83
2021/10/24 10:24:01;;;;;;;8.55;4.28;;;15.60;46.90;;;;;;5020410;28;20207;-84
2021/10/24 10:26:44;;;;;;;7.40;4.90;;;15.90;46.10;;;;;;5052926;28;20086;-83
2021/10/24 10:29:12;;;;;;;6.57;4.68;;;15.90;44.30;;;;;;5037747;28;20099;-85
2021/10/24 10:31:42;;;;;;;6.88;4.32;;;15.90;43.60;;;;;;5052458;28;20037;-83
2021/10/24 10:34:11;;;;;;;10.25;4.63;;;16.10;43.70;;;;;;5038459;28;20516;-84
2021/10/24 10:36:48;;;;;;;6.25;4.40;;;16.30;43.40;;;;;;5054565;28;20032;-84
2021/10/24 10:39:33;;;;;;;6.38;3.97;;;16.40;43.30;;;;;;5056099;28;20073;-84
2021/10/24 10:42:21;;;;;;;12.10;4.93;;;16.40;43.30;;;;;;5036397;28;20037;-83
2021/10/24 10:45:16;;;;;;;6.35;4.28;;;16.80;42.60;;;;;;5060854;28;20040;-84
2021/10/24 10:47:55;;;;;;;;;;;17.10;41.90;;;;;;5095486;28;20393;-83
2021/10/24 10:50:43;;;;;;;8.55;4.82;;;17.30;41.30;;;;;;5088311;28;20387;-84
2021/10/24 10:53:44;;;;;;;7.47;4.65;;;17.60;40.60;;;;;;5077226;28;20098;-87
2021/10/24 10:56:55;;;;;;;6.97;4.00;;;17.80;39.10;;;;;;5083895;28;20069;-84
2021/10/24 10:59:36;;;;;;;8.65;4.25;;;17.70;39.40;;;;;;5085220;28;20480;-85
2021/10/24 11:02:20;;;;;;;6.95;4.13;;;17.80;39.40;;;;;;5076409;28;20415;-84
2021/10/24 11:04:48;;;;;;;6.40;4.00;;;17.80;39.20;;;;;;5094822;28;20020;-86
2021/10/24 11:07:43;;;;;;;4.70;3.78;;;17.80;38.90;;;;;;5094712;28;20020;-86
2021/10/24 11:10:37;;;;;;;8.95;4.07;;;18.00;38.50;;;;;;5093717;28;20113;-86
2021/10/24 11:13:27;;;;;;;5.78;3.53;;;18.30;38.30;;;;;;5078789;28;20461;-79
2021/10/24 11:15:53;;;;;;;9.65;3.65;;;18.70;38.90;;;;;;5094350;28;20104;-82
2021/10/24 11:18:32;;;;;;;5.70;3.60;;;19.00;38.50;;;;;;5094402;28;20082;-81
2021/10/24 11:21:00;;;;;;;8.27;3.97;;;19.30;37.40;;;;;;5094603;28;20028;-86
2021/10/24 11:23:30;;;;;;;5.40;3.75;;;19.40;36.70;;;;;;5076463;28;20019;-87
2021/10/24 11:25:59;;;;;;;12.35;6.40;;;19.60;36.30;;;;;;5077116;28;20171;-85
2021/10/24 11:28:29;;;;;;;7.95;4.38;;;19.50;37.10;;;;;;5115216;28;20051;-86
2021/10/24 11:31:03;;;;;;;8.00;4.00;;;18.90;36.60;;;;;;5117719;28;20036;-87
2021/10/24 11:33:43;;;;;;;6.63;4.43;;;19.00;37.60;;;;;;5084249;28;20465;-87
2021/10/24 11:36:09;;;;;;;5.85;3.47;;;18.10;38.50;;;;;;5121157;28;20039;-87
2021/10/24 11:38:35;;;;;;;7.90;4.68;;;18.10;40.10;;;;;;5100585;28;20055;-87
2021/10/24 11:41:01;;;;;;;5.75;4.00;;;17.90;39.10;;;;;;5112701;28;20391;-88
2021/10/24 11:43:29;;;;;;;7.45;4.28;;;18.10;39.50;;;;;;5084264;28;20020;-86
2021/10/24 11:46:01;;;;;;;8.18;4.22;;;18.00;38.60;;;;;;5113381;28;20019;-87
2021/10/24 11:48:32;;;;;;;5.75;3.92;;;18.20;39.00;;;;;;5114986;28;20425;-88
2021/10/24 11:51:09;;;;;;;9.52;4.57;;;18.70;38.30;;;;;;5080170;28;20484;-87
2021/10/24 11:53:47;;;;;;;11.07;3.50;;;19.20;36.90;;;;;;5096791;28;20122;-85
2021/10/24 11:56:35;;;;;;;8.68;4.22;;;19.30;36.60;;;;;;5095881;28;20491;-85
2021/10/24 12:01:40;;;;;;;6.88;3.42;;;19.70;35.90;;;;;;5114084;28;20034;-84
2021/10/24 12:04:12;;;;;;;9.05;4.03;;;19.80;36.10;;;;;;5095871;28;20024;-80
2021/10/24 12:06:58;;;;;;;6.53;3.58;;;20.20;35.70;;;;;;5095860;28;20023;-79
2021/10/24 12:09:52;;;;;;;5.18;3.10;;;20.70;36.20;;;;;;5114107;28;20024;-79
2021/10/24 12:12:20;;;;;;;7.85;4.28;;;21.20;34.50;;;;;;5113791;28;20035;-79
2021/10/24 12:14:56;;;;;;;5.65;3.53;;;21.30;32.70;;;;;;5105260;28;20452;-79
2021/10/24 12:17:27;;;;;;;7.65;4.07;;;21.30;33.20;;;;;;5111358;28;20051;-77
2021/10/24 12:20:14;;;;;;;6.20;3.25;;;21.50;32.10;;;;;;5113967;28;20044;-78
2021/10/24 12:22:45;;;;;;;6.55;2.88;;;21.90;32.60;;;;;;5113918;28;20043;-80
2021/10/24 12:25:14;;;;;;;5.53;3.05;;;22.20;32.00;;;;;;5094782;28;20035;-78
2021/10/24 12:27:43;;;;;;;6.95;3.10;;;22.60;31.50;;;;;;5113814;28;20102;-78
2021/10/24 12:30:18;;;;;;;4.75;3.08;;;22.80;31.30;;;;;;5113775;28;20056;-77
2021/10/24 12:33:12;;;;;;;5.75;3.25;;;22.90;29.90;;;;;;5113375;28;20073;-79
2021/10/24 12:35:47;;;;;;;6.63;3.60;;;22.90;29.50;;;;;;5113846;28;20064;-79
2021/10/24 12:38:14;;;;;;;5.28;3.67;;;23.00;29.10;;;;;;5094864;28;20104;-77
2021/10/24 12:40:50;;;;;;;6.93;3.47;;;23.10;28.80;;;;;;5095859;28;20031;-78
2021/10/24 12:43:16;;;;;;;5.60;2.85;;;23.30;28.90;;;;;;5113635;28;20015;-78
2021/10/24 12:45:59;;;;;;;5.68;2.80;;;23.50;29.10;;;;;;5113349;28;20024;-77
2021/10/24 12:48:44;;;;;;;4.97;2.70;;;23.70;28.80;;;;;;5113707;28;20107;-78
2021/10/24 12:51:24;;;;;;;4.13;2.50;;;23.70;27.80;;;;;;5113519;28;20027;-78
2021/10/24 12:53:52;;;;;;;4.25;2.95;;;23.90;27.70;;;;;;5113625;28;20035;-79
2021/10/24 12:56:18;;;;;;;6.72;2.90;;;24.10;27.30;;;;;;5113685;28;20077;-78
2021/10/24 12:58:45;;;;;;;9.30;2.95;;;24.20;27.50;;;;;;5095781;28;20066;-78
2021/10/24 13:01:21;;;;;;;6.32;2.72;;;24.40;26.80;;;;;;5078134;28;20481;-78
2021/10/24 13:03:48;;;;;;;6.40;2.80;;;24.70;26.50;;;;;;5113002;28;20032;-78
2021/10/24 13:06:14;;;;;;;5.93;2.78;;;24.80;25.60;;;;;;5113040;28;20483;-80